Аэропорт: Элиста. Элиста

ICAO: URWI

METAR:
2019/03/24 18:00
URWI 241800Z AUTO 24008MPS 9999 // ///080/// 02/00 Q1013
METAR:
2019/03/02 12:15
TAF TAF URWI 021100Z 0212/02121 28010G17MPS 3100 BR BKN011 BKN020CB 
      TEMPO 0212/0221 26016G23MPS 0800 +SHSNRA BKN003 BKN020CB